Time;durP1;ratioP1;P1;durP2;ratioP2;P2;SDS_P1;SDS_P2;PMS_P1;PMS_P2;Temp;Humidity;BMP_temperature;BMP_pressure;BME280_temperature;BME280_humidity;BME280_pressure;Samples;Min_cycle;Max_cycle;Signal;HPM_P1;HPM_P2
2020/12/02 00:00:48;;;;;;;67.80;24.23;;;3.10;99.90;;;;;;4884234;28;20103;-81
2020/12/02 00:03:18;;;;;;;68.82;24.15;;;3.10;99.90;;;;;;4859657;28;20138;-80
2020/12/02 00:05:43;;;;;;;69.78;24.55;;;3.10;99.90;;;;;;4886499;28;20166;-79
2020/12/02 00:08:10;;;;;;;70.30;24.90;;;3.00;99.90;;;;;;4880047;28;20201;-80
2020/12/02 00:10:33;;;;;;;75.00;26.52;;;3.10;99.90;;;;;;4881385;28;20507;-80
2020/12/02 00:12:56;;;;;;;69.50;24.60;;;3.10;99.90;;;;;;4880150;28;20087;-81
2020/12/02 00:15:19;;;;;;;77.47;26.92;;;3.10;99.90;;;;;;4883014;28;20170;-80
2020/12/02 00:17:41;;;;;;;60.35;23.13;;;3.10;99.90;;;;;;4881533;28;20441;-80
2020/12/02 00:20:09;;;;;;;62.30;23.45;;;3.00;99.90;;;;;;4883366;28;21956;-80
2020/12/02 00:22:35;;;;;;;64.03;24.33;;;3.10;99.90;;;;;;4861411;28;20191;-81
2020/12/02 00:25:03;;;;;;;71.47;24.02;;;3.10;99.90;;;;;;4862388;28;20570;-80
2020/12/02 00:27:29;;;;;;;67.72;24.83;;;3.00;99.90;;;;;;4881278;28;20099;-80
2020/12/02 00:29:52;;;;;;;64.25;24.02;;;3.00;99.90;;;;;;4883042;28;20287;-80
2020/12/02 00:32:27;;;;;;;64.63;24.92;;;3.00;99.90;;;;;;4880889;28;20171;-80
2020/12/02 00:34:50;;;;;;;68.27;24.13;;;3.10;99.90;;;;;;4857391;28;20159;-80
2020/12/02 00:37:14;;;;;;;76.20;24.65;;;3.10;99.90;;;;;;4882544;28;20083;-79
2020/12/02 00:39:37;;;;;;;72.70;24.30;;;3.00;99.90;;;;;;4878654;28;20165;-80
2020/12/02 00:41:59;;;;;;;69.70;25.23;;;3.00;99.90;;;;;;4879380;28;20182;-80
2020/12/02 00:44:22;;;;;;;62.05;23.50;;;3.00;99.90;;;;;;4879552;28;20177;-80
2020/12/02 00:46:49;;;;;;;73.85;24.75;;;2.90;99.90;;;;;;4882873;28;20160;-80
2020/12/02 00:49:12;;;;;;;72.93;24.98;;;;;;;;;;4880161;28;20177;-80
2020/12/02 00:51:34;;;;;;;66.40;24.75;;;2.90;99.90;;;;;;4859470;28;20179;-80
2020/12/02 00:53:58;;;;;;;75.90;26.55;;;;;;;;;;4858455;28;20161;-79
2020/12/02 00:56:21;;;;;;;80.75;25.75;;;2.90;99.90;;;;;;4860616;28;20511;-80
2020/12/02 00:58:51;;;;;;;73.38;25.00;;;2.90;99.90;;;;;;4858967;28;20168;-79
2020/12/02 01:01:16;;;;;;;79.50;26.13;;;2.90;99.90;;;;;;4861209;28;20122;-80
2020/12/02 01:03:40;;;;;;;79.93;25.55;;;2.90;99.90;;;;;;4879699;28;20156;-80
2020/12/02 01:06:05;;;;;;;82.15;27.55;;;2.90;99.90;;;;;;4881975;28;20090;-80
2020/12/02 01:08:32;;;;;;;83.90;26.43;;;2.90;99.90;;;;;;4880039;28;20087;-79
2020/12/02 01:11:03;;;;;;;86.38;27.73;;;2.90;99.90;;;;;;4880128;28;20598;-80
2020/12/02 01:13:27;;;;;;;80.90;27.20;;;;;;;;;;4876432;28;20084;-79
2020/12/02 01:15:49;;;;;;;99.53;28.27;;;;;;;;;;4880748;28;20167;-80
2020/12/02 01:18:18;;;;;;;88.13;27.65;;;2.90;99.90;;;;;;4878480;28;20088;-79
2020/12/02 01:20:42;;;;;;;104.90;29.17;;;2.80;99.90;;;;;;4882163;28;20111;-80
2020/12/02 01:23:04;;;;;;;91.32;28.90;;;2.90;99.90;;;;;;4883954;28;20119;-80
2020/12/02 01:25:27;;;;;;;93.25;28.83;;;2.90;99.90;;;;;;4888265;28;20084;-80
2020/12/02 01:27:57;;;;;;;102.30;30.23;;;2.90;99.90;;;;;;4885562;28;20162;-80
2020/12/02 01:30:23;;;;;;;90.70;28.65;;;2.90;99.90;;;;;;4883497;28;20119;-80
2020/12/02 01:32:45;;;;;;;83.43;26.17;;;2.80;99.90;;;;;;4861726;28;20119;-80
2020/12/02 01:35:11;;;;;;;88.32;26.73;;;2.80;99.90;;;;;;4866819;28;20115;-80
2020/12/02 01:37:36;;;;;;;81.65;26.05;;;2.80;99.90;;;;;;4883986;28;20186;-80
2020/12/02 01:40:16;;;;;;;84.80;27.08;;;2.80;99.90;;;;;;4885765;28;20141;-80
2020/12/02 01:42:40;;;;;;;105.38;28.70;;;2.80;99.90;;;;;;4883516;28;20079;-80
2020/12/02 01:45:12;;;;;;;88.35;27.35;;;2.80;99.90;;;;;;4881984;28;20088;-79
2020/12/02 01:47:46;;;;;;;94.30;29.25;;;2.80;99.90;;;;;;4885702;28;20169;-80
2020/12/02 01:50:14;;;;;;;88.43;29.40;;;2.80;99.90;;;;;;4883480;28;20105;-80
2020/12/02 01:52:55;;;;;;;91.72;29.10;;;2.80;99.90;;;;;;4881158;28;20091;-80
2020/12/02 01:55:23;;;;;;;87.72;27.40;;;2.70;99.90;;;;;;4881937;28;20162;-79
2020/12/02 01:57:49;;;;;;;89.47;28.98;;;2.70;99.90;;;;;;4883472;28;20186;-80
2020/12/02 02:00:16;;;;;;;87.65;27.25;;;2.70;99.90;;;;;;4884914;28;20462;-81
2020/12/02 02:02:46;;;;;;;104.30;30.65;;;2.70;99.90;;;;;;4883433;28;20149;-80
2020/12/02 02:05:14;;;;;;;91.28;27.92;;;2.70;99.90;;;;;;4864473;28;20111;-80
2020/12/02 02:07:38;;;;;;;109.47;31.10;;;2.80;99.90;;;;;;4854124;28;20112;-80
2020/12/02 02:10:07;;;;;;;98.75;30.00;;;2.80;99.90;;;;;;4862782;28;20091;-80
2020/12/02 02:12:56;;;;;;;95.10;30.17;;;2.80;99.90;;;;;;4861561;28;20174;-80
2020/12/02 02:15:34;;;;;;;103.30;28.02;;;2.80;99.90;;;;;;4851915;28;20171;-80
2020/12/02 02:17:59;;;;;;;81.57;27.15;;;2.90;99.90;;;;;;4868540;28;20174;-79
2020/12/02 02:20:26;;;;;;;86.00;28.83;;;2.90;99.90;;;;;;4882522;28;20185;-79
2020/12/02 02:22:51;;;;;;;92.70;28.23;;;2.90;99.90;;;;;;4886573;28;20494;-80
2020/12/02 02:25:14;;;;;;;;;;;2.90;99.90;;;;;;4884849;28;20178;-80
2020/12/02 02:27:39;;;;;;;85.13;27.73;;;2.90;99.90;;;;;;4882813;28;20025;-80
2020/12/02 02:30:04;;;;;;;93.37;26.10;;;2.90;99.90;;;;;;4883218;28;20128;-80
2020/12/02 02:32:29;;;;;;;82.28;27.17;;;2.90;99.90;;;;;;4882094;28;20087;-80
2020/12/02 02:34:54;;;;;;;;;;;2.90;99.90;;;;;;4884092;28;20137;-80
2020/12/02 02:37:21;;;;;;;84.82;26.50;;;2.90;99.90;;;;;;4883395;28;19971;-80
2020/12/02 02:39:44;;;;;;;75.88;26.65;;;2.80;99.90;;;;;;4883038;28;20584;-80
2020/12/02 02:42:22;;;;;;;84.50;28.70;;;2.80;99.90;;;;;;4882898;28;20150;-80
2020/12/02 02:44:46;;;;;;;84.72;28.42;;;2.90;99.90;;;;;;4881933;28;20542;-80
2020/12/02 02:47:08;;;;;;;79.97;27.60;;;2.80;99.90;;;;;;4886106;28;20089;-80
2020/12/02 02:49:31;;;;;;;89.55;25.85;;;;;;;;;;4885650;28;20153;-80
2020/12/02 02:51:54;;;;;;;79.38;28.20;;;2.80;99.90;;;;;;4883876;28;20164;-80
2020/12/02 02:54:17;;;;;;;86.15;28.08;;;2.80;99.90;;;;;;4861342;28;20098;-80
2020/12/02 02:56:40;;;;;;;81.45;29.20;;;2.80;99.90;;;;;;4885927;28;20111;-80
2020/12/02 02:59:03;;;;;;;83.70;28.23;;;2.80;99.90;;;;;;4885375;28;20642;-80
2020/12/02 03:01:27;;;;;;;85.47;29.42;;;;;;;;;;4861498;28;20163;-80
2020/12/02 03:03:50;;;;;;;85.93;28.50;;;2.80;99.90;;;;;;4864273;28;20515;-80
2020/12/02 03:06:12;;;;;;;77.63;27.35;;;2.90;99.90;;;;;;4863380;28;20091;-80
2020/12/02 03:08:36;;;;;;;85.32;27.95;;;2.90;99.90;;;;;;4883332;28;20536;-79
2020/12/02 03:11:01;;;;;;;77.63;26.88;;;2.90;99.90;;;;;;4884156;28;20522;-80
2020/12/02 03:13:36;;;;;;;79.47;27.33;;;2.80;99.90;;;;;;4859235;28;20171;-80
2020/12/02 03:16:02;;;;;;;86.38;27.60;;;2.80;99.90;;;;;;4862601;28;20088;-80
2020/12/02 03:18:27;;;;;;;84.35;27.77;;;2.80;99.90;;;;;;4871709;28;20088;-79
2020/12/02 03:20:59;;;;;;;86.53;27.67;;;2.80;99.90;;;;;;4881697;28;20119;-80
2020/12/02 03:23:22;;;;;;;79.78;29.35;;;2.70;99.90;;;;;;4862980;28;20138;-80
2020/12/02 03:25:46;;;;;;;78.22;27.13;;;2.70;99.90;;;;;;4882203;28;20107;-80
2020/12/02 03:28:09;;;;;;;81.93;28.10;;;2.80;99.90;;;;;;4886063;28;20202;-80
2020/12/02 03:30:32;;;;;;;82.85;29.27;;;2.80;99.90;;;;;;4880613;28;20606;-80
2020/12/02 03:32:55;;;;;;;90.32;30.10;;;2.80;99.90;;;;;;4862892;28;20092;-79
2020/12/02 03:35:19;;;;;;;78.07;28.10;;;;;;;;;;4862632;28;20195;-81
2020/12/02 03:37:43;;;;;;;88.75;28.13;;;2.80;99.90;;;;;;4861654;28;20131;-80
2020/12/02 03:40:09;;;;;;;74.45;26.25;;;2.80;99.90;;;;;;4852896;28;20619;-80
2020/12/02 03:42:31;;;;;;;;;;;2.80;99.90;;;;;;4853760;28;20096;-81
2020/12/02 03:44:54;;;;;;;93.72;26.45;;;2.70;99.90;;;;;;4861699;28;19978;-79
2020/12/02 03:47:17;;;;;;;91.32;27.92;;;2.60;99.90;;;;;;4862872;28;20092;-80
2020/12/02 03:49:39;;;;;;;83.20;27.30;;;2.60;99.90;;;;;;4861926;28;20122;-80
2020/12/02 03:52:04;;;;;;;82.68;27.98;;;2.60;99.90;;;;;;4860411;28;20080;-80
2020/12/02 03:54:26;;;;;;;80.75;28.35;;;2.60;99.90;;;;;;4862526;28;20111;-80
2020/12/02 03:56:49;;;;;;;70.93;26.70;;;2.60;99.90;;;;;;4861337;28;20182;-80
2020/12/02 03:59:12;;;;;;;75.00;26.27;;;2.60;99.90;;;;;;4859297;28;20178;-80
2020/12/02 04:01:35;;;;;;;86.30;26.50;;;2.50;99.90;;;;;;4860671;28;20456;-80
2020/12/02 04:03:57;;;;;;;71.70;24.58;;;2.60;99.90;;;;;;4882897;28;20171;-80
2020/12/02 04:06:20;;;;;;;79.88;27.95;;;2.60;99.90;;;;;;4880712;28;20086;-80
2020/12/02 04:08:44;;;;;;;89.63;29.05;;;2.60;99.90;;;;;;4882745;28;20171;-80
2020/12/02 04:11:09;;;;;;;85.10;27.55;;;2.60;99.90;;;;;;4859041;28;20167;-81
2020/12/02 04:13:33;;;;;;;81.18;26.70;;;2.60;99.90;;;;;;4881455;28;20647;-80
2020/12/02 04:15:55;;;;;;;91.47;28.92;;;2.60;99.90;;;;;;4879007;28;20087;-80
2020/12/02 04:18:20;;;;;;;88.05;29.95;;;2.60;99.90;;;;;;4882192;28;20141;-80
2020/12/02 04:20:43;;;;;;;84.20;29.23;;;2.70;99.90;;;;;;4858684;28;20436;-81
2020/12/02 04:23:06;;;;;;;85.75;28.65;;;2.70;99.90;;;;;;4858042;28;20084;-80
2020/12/02 04:25:30;;;;;;;80.10;27.92;;;2.70;99.90;;;;;;4859781;28;20104;-81
2020/12/02 04:27:53;;;;;;;85.13;27.33;;;2.70;99.90;;;;;;4863297;28;20175;-80
2020/12/02 04:30:17;;;;;;;85.28;27.38;;;2.60;99.90;;;;;;4880126;28;20141;-79
2020/12/02 04:32:40;;;;;;;77.38;27.83;;;2.70;99.90;;;;;;4878272;28;20083;-80
2020/12/02 04:35:03;;;;;;;83.18;29.23;;;2.60;99.90;;;;;;4881696;28;20119;-81
2020/12/02 04:37:26;;;;;;;93.18;27.88;;;2.60;99.90;;;;;;4881973;28;20115;-80
2020/12/02 04:39:49;;;;;;;81.40;27.20;;;2.60;99.90;;;;;;4881340;28;20175;-80
2020/12/02 04:42:13;;;;;;;75.95;27.23;;;2.60;99.90;;;;;;4881989;28;20119;-80
2020/12/02 04:44:37;;;;;;;86.82;30.33;;;2.60;99.90;;;;;;4881799;28;20537;-80
2020/12/02 04:46:59;;;;;;;93.43;30.05;;;2.60;99.90;;;;;;4880162;28;20079;-80
2020/12/02 04:49:31;;;;;;;88.35;30.38;;;2.60;99.90;;;;;;4880441;28;20087;-80
2020/12/02 04:51:59;;;;;;;83.78;29.20;;;2.60;99.90;;;;;;4879847;28;20617;-80
2020/12/02 04:54:22;;;;;;;79.13;27.10;;;2.60;99.90;;;;;;4877964;28;20517;-80
2020/12/02 04:56:47;;;;;;;78.60;29.02;;;2.50;99.90;;;;;;4882162;28;20083;-80
2020/12/02 04:59:11;;;;;;;83.90;28.45;;;2.60;99.90;;;;;;4883044;28;20213;-80
2020/12/02 05:01:35;;;;;;;85.97;29.48;;;2.60;99.90;;;;;;4879484;28;20531;-80
2020/12/02 05:04:02;;;;;;;83.72;29.98;;;2.50;99.90;;;;;;4880577;28;20141;-80
2020/12/02 05:06:38;;;;;;;86.53;28.92;;;2.50;99.90;;;;;;4861205;28;20183;-79
2020/12/02 05:09:27;;;;;;;85.32;26.98;;;2.50;99.90;;;;;;4859196;28;20191;-79
2020/12/02 05:11:58;;;;;;;74.72;26.10;;;2.50;99.90;;;;;;4853996;28;20441;-80
2020/12/02 05:14:23;;;;;;;87.85;29.23;;;2.50;99.90;;;;;;4850026;28;20088;-80
2020/12/02 05:16:46;;;;;;;81.60;28.67;;;2.50;99.90;;;;;;4858714;28;20095;-80
2020/12/02 05:19:16;;;;;;;78.53;28.13;;;2.50;99.90;;;;;;4880204;28;20186;-79
2020/12/02 05:21:40;;;;;;;78.15;25.50;;;2.60;99.90;;;;;;4876654;28;20083;-80
2020/12/02 05:24:09;;;;;;;92.18;29.83;;;2.60;99.90;;;;;;4879534;28;20096;-81
2020/12/02 05:26:35;;;;;;;84.85;28.38;;;2.60;99.90;;;;;;4876936;28;20111;-80
2020/12/02 05:28:58;;;;;;;82.07;28.60;;;2.60;99.90;;;;;;4878652;28;20099;-80
2020/12/02 05:31:26;;;;;;;80.30;27.98;;;2.60;99.90;;;;;;4883639;28;20684;-80
2020/12/02 05:33:49;;;;;;;86.80;28.33;;;2.60;99.90;;;;;;4878461;28;20159;-80
2020/12/02 05:36:17;;;;;;;82.75;27.27;;;2.60;99.90;;;;;;4881935;28;20091;-80
2020/12/02 05:38:44;;;;;;;76.00;27.15;;;2.60;99.90;;;;;;4880520;28;20186;-79
2020/12/02 05:41:13;;;;;;;76.03;26.63;;;2.60;99.90;;;;;;4881234;28;20111;-80
2020/12/02 05:43:45;;;;;;;78.63;30.08;;;2.60;99.90;;;;;;4878652;28;20515;-79
2020/12/02 05:46:13;;;;;;;84.57;28.95;;;2.60;99.90;;;;;;4882039;28;20178;-80
2020/12/02 05:48:42;;;;;;;81.35;27.58;;;2.50;99.90;;;;;;4850838;28;20120;-80
2020/12/02 05:51:12;;;;;;;69.40;25.52;;;2.50;99.90;;;;;;4849134;28;20138;-80
2020/12/02 05:53:42;;;;;;;79.13;27.67;;;2.50;99.90;;;;;;4851528;28;20498;-80
2020/12/02 05:56:06;;;;;;;81.85;25.92;;;2.40;99.90;;;;;;4880012;28;20092;-80
2020/12/02 05:58:30;;;;;;;72.68;26.20;;;2.40;99.90;;;;;;4881317;28;20190;-80
2020/12/02 06:00:53;;;;;;;74.75;26.30;;;2.40;99.90;;;;;;4879933;28;20111;-80
2020/12/02 06:03:19;;;;;;;85.60;27.17;;;2.40;99.90;;;;;;4881396;28;20079;-79
2020/12/02 06:05:42;;;;;;;66.90;26.83;;;;;;;;;;4878871;28;20085;-80
2020/12/02 06:08:08;;;;;;;69.32;26.75;;;2.40;99.90;;;;;;4863008;28;20487;-80
2020/12/02 06:10:56;;;;;;;75.57;27.55;;;2.40;99.90;;;;;;4853663;28;20104;-79
2020/12/02 06:13:37;;;;;;;80.10;26.67;;;2.40;99.90;;;;;;4882868;28;20163;-79
2020/12/02 06:16:00;;;;;;;72.82;26.52;;;2.50;99.90;;;;;;4880704;28;20174;-80
2020/12/02 06:18:40;;;;;;;70.40;26.80;;;2.40;99.90;;;;;;4883527;28;20629;-79
2020/12/02 06:21:04;;;;;;;73.43;25.75;;;2.40;99.90;;;;;;4882433;28;20446;-80
2020/12/02 06:23:35;;;;;;;77.10;26.75;;;2.40;99.90;;;;;;4882439;28;20167;-80
2020/12/02 06:25:58;;;;;;;66.25;24.80;;;2.30;99.90;;;;;;4883242;28;20442;-80
2020/12/02 06:28:45;;;;;;;73.20;27.05;;;2.30;99.90;;;;;;4880887;28;20228;-80
2020/12/02 06:31:13;;;;;;;74.60;26.25;;;2.30;99.90;;;;;;4852459;28;20171;-80
2020/12/02 06:33:39;;;;;;;73.68;25.60;;;2.40;99.90;;;;;;4881714;28;20155;-80
2020/12/02 06:36:11;;;;;;;;;;;2.40;99.90;;;;;;4881365;28;20548;-80
2020/12/02 06:38:33;;;;;;;63.70;23.33;;;2.40;99.90;;;;;;4885314;28;20071;-80
2020/12/02 06:41:30;;;;;;;68.82;26.30;;;2.40;99.90;;;;;;4881348;28;20517;-80
2020/12/02 06:43:57;;;;;;;81.18;30.50;;;2.40;99.90;;;;;;4860693;28;20180;-79
2020/12/02 06:46:44;;;;;;;77.43;29.90;;;2.40;99.90;;;;;;4864709;28;20088;-79
2020/12/02 06:49:07;;;;;;;71.35;27.08;;;2.40;99.90;;;;;;4852929;28;20097;-80
2020/12/02 06:51:30;;;;;;;81.22;28.80;;;2.40;99.90;;;;;;4853180;28;20239;-80
2020/12/02 06:53:54;;;;;;;90.75;30.77;;;2.40;99.90;;;;;;4852774;28;20087;-80
2020/12/02 06:56:19;;;;;;;76.07;31.30;;;2.40;99.90;;;;;;4853672;28;20171;-80
2020/12/02 06:58:41;;;;;;;95.88;33.80;;;2.40;99.90;;;;;;4852967;28;20087;-79
2020/12/02 07:01:05;;;;;;;71.55;27.20;;;2.40;99.90;;;;;;4866936;28;20134;-80
2020/12/02 07:03:30;;;;;;;78.93;26.17;;;2.40;99.90;;;;;;4862250;28;20078;-81
2020/12/02 07:06:04;;;;;;;;;;;2.30;99.90;;;;;;4880499;28;20172;-80
2020/12/02 07:08:33;;;;;;;77.15;26.17;;;2.30;99.90;;;;;;4852553;28;19967;-79
2020/12/02 07:11:04;;;;;;;79.70;27.13;;;2.40;99.90;;;;;;4851344;28;20089;-80
2020/12/02 07:13:31;;;;;;;90.03;29.50;;;2.30;99.90;;;;;;4863725;28;20172;-80
2020/12/02 07:15:56;;;;;;;85.75;28.40;;;2.30;99.90;;;;;;4881592;28;20119;-80
2020/12/02 07:18:22;;;;;;;83.68;27.20;;;2.30;99.90;;;;;;4883462;28;20142;-79
2020/12/02 07:20:46;;;;;;;80.75;27.92;;;2.30;99.90;;;;;;4881801;28;20098;-80
2020/12/02 07:23:13;;;;;;;84.72;29.40;;;2.30;99.90;;;;;;4882196;28;20088;-79
2020/12/02 07:25:36;;;;;;;83.05;29.98;;;2.30;99.90;;;;;;4882543;28;20178;-80
2020/12/02 07:27:59;;;;;;;83.07;30.27;;;2.30;99.90;;;;;;4884273;28;20194;-80
2020/12/02 07:30:34;;;;;;;77.63;28.42;;;2.30;99.90;;;;;;4882036;28;20095;-80
2020/12/02 07:33:09;;;;;;;78.03;27.57;;;2.30;99.90;;;;;;4879839;28;20176;-79
2020/12/02 07:35:31;;;;;;;87.32;28.60;;;2.30;99.90;;;;;;4862070;28;20262;-79
2020/12/02 07:38:07;;;;;;;75.28;26.42;;;2.30;99.90;;;;;;4862703;28;20496;-80
2020/12/02 07:40:33;;;;;;;;;;;2.30;99.90;;;;;;4862016;28;20112;-79
2020/12/02 07:42:59;;;;;;;82.53;28.20;;;2.30;99.90;;;;;;4862753;28;19967;-80
2020/12/02 07:45:26;;;;;;;83.03;28.30;;;2.30;99.90;;;;;;4881005;28;20138;-79
2020/12/02 07:47:52;;;;;;;82.70;28.73;;;2.40;99.90;;;;;;4884599;28;20508;-80
2020/12/02 07:50:26;;;;;;;83.70;28.00;;;2.40;99.90;;;;;;4879357;28;20081;-80
2020/12/02 07:52:53;;;;;;;80.90;28.45;;;2.40;99.90;;;;;;4880741;28;20180;-80
2020/12/02 07:55:23;;;;;;;80.05;28.50;;;2.30;99.90;;;;;;4882443;28;20110;-80
2020/12/02 07:57:49;;;;;;;80.00;27.20;;;2.40;99.90;;;;;;4862347;28;20539;-80
2020/12/02 08:00:26;;;;;;;84.28;28.52;;;2.40;99.90;;;;;;4861844;28;20095;-80
2020/12/02 08:02:49;;;;;;;77.38;29.60;;;2.40;99.90;;;;;;4878894;28;20094;-80
2020/12/02 08:05:32;;;;;;;81.57;30.15;;;2.40;99.90;;;;;;4883333;28;20452;-79
2020/12/02 08:08:00;;;;;;;80.75;28.55;;;2.40;99.90;;;;;;4884220;28;20187;-79
2020/12/02 08:10:26;;;;;;;92.13;29.45;;;2.40;99.90;;;;;;4881515;28;20545;-79
2020/12/02 08:12:49;;;;;;;80.60;27.55;;;2.40;99.90;;;;;;4860370;28;20535;-80
2020/12/02 08:15:13;;;;;;;87.25;28.15;;;2.50;99.90;;;;;;4882630;28;20531;-80
2020/12/02 08:17:39;;;;;;;83.20;29.92;;;2.50;99.90;;;;;;4881529;28;20087;-81
2020/12/02 08:20:19;;;;;;;;;;;2.50;99.90;;;;;;4882188;28;20111;-80
2020/12/02 08:22:48;;;;;;;86.57;28.20;;;2.50;99.90;;;;;;4878974;28;19972;-79
2020/12/02 08:25:24;;;;;;;78.55;28.23;;;2.50;99.90;;;;;;4874815;28;20178;-80
2020/12/02 08:27:53;;;;;;;84.68;29.95;;;2.40;99.90;;;;;;4883676;28;20112;-80
2020/12/02 08:30:20;;;;;;;90.10;29.00;;;2.40;99.90;;;;;;4879380;28;20535;-80
2020/12/02 08:32:49;;;;;;;95.03;32.88;;;2.40;99.90;;;;;;4885266;28;20085;-79
2020/12/02 08:35:25;;;;;;;85.82;31.42;;;2.50;99.90;;;;;;4876607;28;21333;-79
2020/12/02 08:37:54;;;;;;;95.68;31.45;;;2.50;99.90;;;;;;4879892;28;20434;-80
2020/12/02 08:40:39;;;;;;;83.18;30.15;;;2.50;99.90;;;;;;4862211;28;20085;-80
2020/12/02 08:43:24;;;;;;;83.07;29.17;;;2.50;99.90;;;;;;4851017;28;20163;-80
2020/12/02 08:46:02;;;;;;;97.40;29.80;;;2.50;99.90;;;;;;4848193;28;20164;-80
2020/12/02 08:48:28;;;;;;;85.38;28.63;;;2.50;99.90;;;;;;4882455;28;20089;-80
2020/12/02 08:50:52;;;;;;;77.90;27.77;;;2.60;99.90;;;;;;4864319;28;20518;-80
2020/12/02 08:53:22;;;;;;;73.07;26.67;;;2.60;99.90;;;;;;4860266;28;20167;-79
2020/12/02 08:55:46;;;;;;;84.53;29.45;;;2.60;99.90;;;;;;4880704;28;20171;-80
2020/12/02 08:58:09;;;;;;;82.53;28.52;;;2.70;99.90;;;;;;4880963;28;20087;-80
2020/12/02 09:00:43;;;;;;;82.93;28.25;;;2.60;99.90;;;;;;4874788;28;20538;-80
2020/12/02 09:03:08;;;;;;;84.68;28.17;;;2.70;99.90;;;;;;4821178;28;20079;-80
2020/12/02 09:09:35;;;;;;;78.35;27.70;;;2.80;99.90;;;;;;4883900;28;20549;-80
2020/12/02 09:12:18;;;;;;;87.68;30.13;;;2.80;99.90;;;;;;4835337;28;20174;-80
2020/12/02 09:14:47;;;;;;;89.38;28.75;;;2.70;99.90;;;;;;4824510;28;20098;-80
2020/12/02 09:17:11;;;;;;;87.22;29.00;;;2.80;99.90;;;;;;4828455;28;20556;-80
2020/12/02 09:19:52;;;;;;;84.60;29.98;;;2.80;99.90;;;;;;4825331;28;20182;-80
2020/12/02 09:22:24;;;;;;;78.95;28.80;;;2.80;99.90;;;;;;4815784;28;20103;-80
2020/12/02 09:25:11;;;;;;;83.38;27.98;;;2.80;99.90;;;;;;4824060;28;20110;-80
2020/12/02 09:28:02;;;;;;;81.88;28.08;;;2.90;99.90;;;;;;4802795;28;20439;-81
2020/12/02 09:31:01;;;;;;;76.88;26.95;;;2.90;99.90;;;;;;4821648;28;24950;-80
2020/12/02 09:37:28;;;;;;;92.30;29.58;;;2.90;99.90;;;;;;4812430;28;20136;-80
2020/12/02 09:40:05;;;;;;;87.70;28.00;;;2.90;99.90;;;;;;4812721;28;20084;-80
2020/12/02 09:43:15;;;;;;;80.55;28.25;;;2.90;99.90;;;;;;4830061;28;20100;-80
2020/12/02 09:58:57;;;;;;;86.68;30.15;;;2.70;99.90;;;;;;4824832;28;20093;-83
2020/12/02 10:05:30;;;;;;;81.05;27.27;;;2.80;99.90;;;;;;4812261;28;20084;-82
2020/12/02 10:08:46;;;;;;;80.03;29.05;;;2.90;99.90;;;;;;4824741;28;20531;-82
2020/12/02 10:15:38;;;;;;;72.78;28.30;;;3.00;99.90;;;;;;4834443;28;20581;-82
2020/12/02 10:18:58;;;;;;;80.50;26.85;;;3.00;99.90;;;;;;4815746;28;20092;-82
2020/12/02 10:22:06;;;;;;;84.82;27.98;;;3.00;99.90;;;;;;4830690;28;20179;-81
2020/12/02 10:25:04;;;;;;;81.20;29.30;;;3.00;99.90;;;;;;4813368;28;20092;-84
2020/12/02 10:28:26;;;;;;;84.07;29.08;;;3.00;99.90;;;;;;4820710;28;20099;-82
2020/12/02 10:31:18;;;;;;;90.55;29.50;;;3.10;99.90;;;;;;4829321;28;20173;-82
2020/12/02 10:37:35;;;;;;;93.93;31.30;;;3.10;99.90;;;;;;4823126;28;20512;-82
2020/12/02 10:40:15;;;;;;;92.18;31.55;;;3.10;99.90;;;;;;4821438;28;20547;-81
2020/12/02 10:43:19;;;;;;;134.68;37.47;;;3.20;99.90;;;;;;4834707;28;22062;-81
2020/12/02 10:46:06;;;;;;;87.28;30.27;;;3.20;99.90;;;;;;4807255;28;20184;-82
2020/12/02 10:49:03;;;;;;;78.82;29.35;;;3.30;99.90;;;;;;4840158;28;20104;-81
2020/12/02 10:51:36;;;;;;;85.30;28.55;;;3.40;99.90;;;;;;4875544;28;20175;-81
2020/12/02 10:54:01;;;;;;;85.40;31.35;;;3.50;99.90;;;;;;4862989;28;20439;-80
2020/12/02 10:56:24;;;;;;;92.60;29.55;;;;;;;;;;4863254;28;20115;-81
2020/12/02 10:58:53;;;;;;;85.05;31.30;;;3.50;99.90;;;;;;4862376;28;20089;-82
2020/12/02 11:01:16;;;;;;;86.25;31.58;;;;;;;;;;4880436;28;20091;-81
2020/12/02 11:03:40;;;;;;;84.13;31.42;;;3.60;99.90;;;;;;4879409;28;20134;-82
2020/12/02 11:06:30;;;;;;;95.38;32.85;;;3.80;99.90;;;;;;4875974;28;20094;-82
2020/12/02 11:09:09;;;;;;;97.43;32.83;;;4.00;99.90;;;;;;4879660;28;20092;-81
2020/12/02 11:11:42;;;;;;;91.85;30.38;;;4.20;99.90;;;;;;4880867;28;20370;-80
2020/12/02 11:14:17;;;;;;;92.55;32.35;;;4.10;99.90;;;;;;4877481;28;20577;-82
2020/12/02 11:16:55;;;;;;;81.00;31.83;;;4.10;99.90;;;;;;4882803;28;20091;-81
2020/12/02 11:19:43;;;;;;;94.20;32.17;;;4.00;99.90;;;;;;4885591;28;20095;-82
2020/12/02 11:22:20;;;;;;;81.70;29.95;;;4.00;99.90;;;;;;4877772;28;20115;-82
2020/12/02 11:25:00;;;;;;;83.80;29.40;;;3.80;99.90;;;;;;4881669;28;20571;-81
2020/12/02 11:27:23;;;;;;;76.28;28.75;;;;;;;;;;4854636;28;20123;-81
2020/12/02 11:29:48;;;;;;;87.53;31.27;;;3.70;99.90;;;;;;4855652;28;20150;-81
2020/12/02 11:32:40;;;;;;;80.65;30.30;;;3.50;99.90;;;;;;4843655;28;20581;-82
2020/12/02 11:35:19;;;;;;;84.72;30.17;;;3.60;99.90;;;;;;4878863;28;20133;-83
2020/12/02 11:37:51;;;;;;;80.72;29.52;;;3.50;99.90;;;;;;4884677;28;20116;-82
2020/12/02 11:40:18;;;;;;;82.50;30.15;;;3.40;99.90;;;;;;4882645;28;20122;-81
2020/12/02 11:42:45;;;;;;;91.32;29.95;;;3.30;99.90;;;;;;4881855;28;20087;-81
2020/12/02 11:45:15;;;;;;;85.88;30.23;;;3.30;99.90;;;;;;4882572;28;20174;-81
2020/12/02 11:47:50;;;;;;;83.40;29.67;;;3.20;99.90;;;;;;4878990;28;20087;-82
2020/12/02 11:50:20;;;;;;;92.43;31.98;;;3.10;99.90;;;;;;4882390;28;20105;-82
2020/12/02 11:52:59;;;;;;;82.88;29.45;;;3.00;99.90;;;;;;4881732;28;20116;-82
2020/12/02 11:55:23;;;;;;;85.32;31.48;;;2.90;99.90;;;;;;4873589;28;20082;-82
2020/12/02 11:57:49;;;;;;;83.63;28.38;;;2.90;99.90;;;;;;4902785;28;20127;-82
2020/12/02 12:00:12;;;;;;;89.95;32.47;;;2.90;99.90;;;;;;4870672;28;20264;-82
2020/12/02 12:02:53;;;;;;;93.00;31.80;;;2.70;99.90;;;;;;4881838;28;20607;-82
2020/12/02 12:05:22;;;;;;;89.78;30.55;;;2.70;99.90;;;;;;4849915;28;20089;-82
2020/12/02 12:07:58;;;;;;;86.95;32.55;;;2.60;99.90;;;;;;4875334;28;20521;-82
2020/12/02 12:10:31;;;;;;;87.75;31.40;;;2.60;99.90;;;;;;4886903;28;20158;-82
2020/12/02 12:13:06;;;;;;;99.10;32.30;;;2.70;99.90;;;;;;4878809;28;20167;-81
2020/12/02 12:15:36;;;;;;;100.65;33.33;;;2.60;99.90;;;;;;4880868;28;20098;-83
2020/12/02 12:18:05;;;;;;;96.50;31.17;;;2.60;99.90;;;;;;4865073;28;20120;-82
2020/12/02 12:20:34;;;;;;;95.22;32.97;;;2.60;99.90;;;;;;4883301;28;20096;-82
2020/12/02 12:23:05;;;;;;;92.28;33.03;;;2.50;99.90;;;;;;4884398;28;20117;-82
2020/12/02 12:25:33;;;;;;;93.65;31.88;;;2.50;99.90;;;;;;4881460;28;20090;-82
2020/12/02 12:27:59;;;;;;;93.50;33.33;;;2.50;99.90;;;;;;4883416;28;20085;-82
2020/12/02 12:30:22;;;;;;;87.18;32.40;;;2.60;99.90;;;;;;4884249;28;20130;-82
2020/12/02 12:32:52;;;;;;;94.60;32.30;;;2.60;99.90;;;;;;4878523;28;20167;-81
2020/12/02 12:35:22;;;;;;;89.05;33.08;;;2.70;99.90;;;;;;4881409;28;20099;-82
2020/12/02 12:37:56;;;;;;;89.10;32.75;;;2.70;99.90;;;;;;4879652;28;20105;-82
2020/12/02 12:40:24;;;;;;;95.60;32.15;;;2.70;99.90;;;;;;4879637;28;20154;-82
2020/12/02 12:42:53;;;;;;;94.20;32.72;;;;;;;;;;4877165;28;20111;-81
2020/12/02 12:45:22;;;;;;;98.68;33.28;;;2.70;99.90;;;;;;4895876;28;20087;-83
2020/12/02 12:47:47;;;;;;;100.60;33.33;;;2.70;99.90;;;;;;4885083;28;20121;-82
2020/12/02 12:50:13;;;;;;;106.22;34.85;;;2.70;99.90;;;;;;4878860;28;20103;-82
2020/12/02 12:52:37;;;;;;;89.45;31.98;;;2.80;99.90;;;;;;4878343;28;23049;-82
2020/12/02 12:55:01;;;;;;;93.40;32.35;;;2.70;99.90;;;;;;4853837;28;20088;-81
2020/12/02 12:57:29;;;;;;;97.75;32.75;;;2.80;99.90;;;;;;4828611;28;20115;-80
2020/12/02 12:59:56;;;;;;;96.28;33.33;;;2.90;99.90;;;;;;4898040;28;20092;-82
2020/12/02 13:02:21;;;;;;;99.03;34.15;;;3.00;99.90;;;;;;4878894;28;20928;-82
2020/12/02 13:04:46;;;;;;;;;;;3.00;99.90;;;;;;4884211;28;22704;-82
2020/12/02 13:07:19;;;;;;;88.28;30.98;;;2.90;99.90;;;;;;4883335;28;19964;-81
2020/12/02 13:10:05;;;;;;;102.38;33.85;;;2.90;99.90;;;;;;4880227;28;20089;-82
2020/12/02 13:12:33;;;;;;;101.97;33.57;;;3.00;99.90;;;;;;4865960;28;20446;-80
2020/12/02 13:15:06;;;;;;;99.10;33.90;;;3.00;99.90;;;;;;4879549;28;20091;-81
2020/12/02 13:17:39;;;;;;;82.95;29.67;;;2.90;99.90;;;;;;4888128;28;20176;-82
2020/12/02 13:20:05;;;;;;;92.50;33.72;;;2.90;99.90;;;;;;4884317;28;20552;-81
2020/12/02 13:22:41;;;;;;;99.10;32.40;;;2.90;99.90;;;;;;4890653;28;20552;-82
2020/12/02 13:25:09;;;;;;;98.38;30.88;;;2.90;99.90;;;;;;4881462;28;20091;-81
2020/12/02 13:27:44;;;;;;;98.47;33.55;;;2.90;99.90;;;;;;4890123;28;20542;-81